Time;durP1;ratioP1;P1;durP2;ratioP2;P2;SDS_P1;SDS_P2;PMS_P1;PMS_P2;Temp;Humidity;BMP_temperature;BMP_pressure;BME280_temperature;BME280_humidity;BME280_pressure;Samples;Min_cycle;Max_cycle;Signal;HPM_P1;HPM_P2
2021/08/16 00:00:44;;;;;;;9.48;4.90;;;;;;;18.07;60.71;93308.97;5091199;28;20432;-79
2021/08/16 00:03:11;;;;;;;8.38;5.57;;;;;;;18.03;61.13;93302.66;5091473;28;20048;-79
2021/08/16 00:05:38;;;;;;;6.00;4.90;;;;;;;17.86;61.10;93277.63;5091405;28;20051;-79
2021/08/16 00:08:07;;;;;;;6.65;4.70;;;;;;;18.07;60.84;93295.16;5091584;28;20074;-79
2021/08/16 00:10:35;;;;;;;7.53;4.90;;;;;;;18.09;60.75;93288.69;5091340;28;20048;-79
2021/08/16 00:13:02;;;;;;;7.32;4.90;;;;;;;18.12;60.73;93297.78;5091375;28;20044;-79
2021/08/16 00:15:29;;;;;;;7.03;4.82;;;;;;;17.87;60.86;93274.00;5091185;28;20048;-79
2021/08/16 00:17:58;;;;;;;6.57;4.43;;;;;;;17.98;60.79;93284.44;5091474;28;20048;-79
2021/08/16 00:20:25;;;;;;;6.95;4.38;;;;;;;18.10;60.35;93290.25;5091401;28;20091;-79
2021/08/16 00:22:52;;;;;;;6.22;4.57;;;;;;;18.02;61.01;93294.06;5091250;28;20169;-79
2021/08/16 00:25:18;;;;;;;7.65;4.88;;;;;;;17.83;60.82;93272.19;5091465;28;20063;-79
2021/08/16 00:27:47;;;;;;;9.00;5.13;;;;;;;17.84;61.04;93268.53;5090909;28;20044;-79
2021/08/16 00:30:14;;;;;;;9.27;5.07;;;;;;;17.94;60.92;93289.38;5091268;28;20047;-79
2021/08/16 00:32:42;;;;;;;5.95;4.45;;;;;;;17.89;61.31;93290.16;5090747;28;20044;-79
2021/08/16 00:35:09;;;;;;;7.63;4.15;;;;;;;17.85;61.53;93293.47;5090672;28;20055;-79
2021/08/16 00:37:36;;;;;;;7.28;4.88;;;;;;;17.84;61.28;93297.13;5090736;28;20040;-79
2021/08/16 00:40:03;;;;;;;5.88;4.82;;;;;;;17.81;61.35;93293.22;5090744;28;20455;-79
2021/08/16 00:42:30;;;;;;;7.30;4.65;;;;;;;17.72;61.56;93286.91;5090334;28;20048;-79
2021/08/16 00:44:59;;;;;;;9.82;5.07;;;;;;;17.70;61.99;93294.19;5091128;28;20044;-79
2021/08/16 00:47:27;;;;;;;6.70;4.80;;;;;;;17.69;62.25;93300.44;5090574;28;20044;-79
2021/08/16 00:49:54;;;;;;;7.40;4.55;;;;;;;17.66;62.64;93290.53;5090919;28;20445;-79
2021/08/16 00:52:21;;;;;;;5.60;4.55;;;;;;;17.57;62.77;93291.00;5090352;28;20044;-79
2021/08/16 00:54:48;;;;;;;8.30;5.15;;;;;;;17.60;62.66;93293.09;5090439;28;20048;-79
2021/08/16 00:57:15;;;;;;;8.88;5.38;;;;;;;17.55;62.57;93279.31;5090386;28;20048;-79
2021/08/16 00:59:42;;;;;;;6.50;4.65;;;;;;;17.34;63.34;93261.78;5090206;28;20052;-79
2021/08/16 01:02:10;;;;;;;8.00;4.93;;;;;;;17.36;64.08;93300.50;5090620;28;20052;-79
2021/08/16 01:04:37;;;;;;;9.30;5.05;;;;;;;17.26;64.31;93293.41;5090548;28;20299;-79
2021/08/16 01:07:04;;;;;;;10.10;5.78;;;;;;;17.17;64.69;93289.72;5090447;28;20071;-79
2021/08/16 01:09:31;;;;;;;7.47;5.00;;;;;;;17.19;64.57;93288.44;5090300;28;20420;-79
2021/08/16 01:11:58;;;;;;;7.15;5.07;;;;;;;17.19;64.25;93287.66;5090440;28;20044;-79
2021/08/16 01:14:25;;;;;;;7.45;4.82;;;;;;;17.26;64.30;93293.41;5090384;28;20052;-79
2021/08/16 01:16:52;;;;;;;7.10;4.57;;;;;;;17.34;64.03;93294.75;5090297;28;20517;-79
2021/08/16 01:19:21;;;;;;;6.93;5.03;;;;;;;17.31;64.48;93296.03;5090344;28;20048;-79
2021/08/16 01:21:49;;;;;;;9.05;5.15;;;;;;;17.21;64.25;93293.34;5090222;28;20055;-79
2021/08/16 01:24:16;;;;;;;7.28;4.90;;;;;;;17.26;64.35;93295.22;5090130;28;20048;-79
2021/08/16 01:26:44;;;;;;;8.68;4.78;;;;;;;17.08;64.86;93279.78;5089714;28;20056;-79
2021/08/16 01:29:16;;;;;;;6.50;5.00;;;;;;;17.09;65.00;93283.16;5090114;28;20059;-79
2021/08/16 01:31:43;;;;;;;7.75;5.25;;;;;;;17.17;64.57;93295.66;5089591;28;20090;-79
2021/08/16 01:34:09;;;;;;;8.55;4.85;;;;;;;17.11;64.99;93288.13;5089709;28;20504;-79
2021/08/16 01:36:37;;;;;;;6.13;5.10;;;;;;;17.07;65.38;93285.22;5089974;28;20051;-79
2021/08/16 01:39:04;;;;;;;8.60;5.13;;;;;;;17.04;65.67;93281.28;5089566;28;20048;-79
2021/08/16 01:41:31;;;;;;;7.50;5.07;;;;;;;17.03;65.54;93291.94;5089948;28;20062;-78
2021/08/16 01:43:59;;;;;;;10.55;5.20;;;;;;;17.04;65.52;93281.28;5089847;28;20044;-75
2021/08/16 01:46:26;;;;;;;10.45;5.28;;;;;;;16.99;65.71;93283.06;5089549;28;20040;-75
2021/08/16 01:48:53;;;;;;;8.40;5.13;;;;;;;16.99;65.62;93283.81;5090007;28;20048;-75
2021/08/16 01:51:20;;;;;;;8.45;5.35;;;;;;;17.03;65.49;93284.16;5089551;28;20044;-76
2021/08/16 01:53:47;;;;;;;7.57;4.80;;;;;;;17.04;65.15;93291.69;5089119;28;20075;-76
2021/08/16 01:56:14;;;;;;;8.27;5.10;;;;;;;17.03;65.05;93287.53;5089408;28;20056;-76
2021/08/16 01:58:40;;;;;;;8.00;5.18;;;;;;;17.02;65.51;93292.91;5089162;28;20066;-76
2021/08/16 02:01:09;;;;;;;9.20;5.00;;;;;;;16.89;66.02;93286.34;5089654;28;20052;-75
2021/08/16 02:03:36;;;;;;;9.13;5.25;;;;;;;16.83;66.29;93283.72;5089540;28;20052;-75
2021/08/16 02:06:02;;;;;;;8.73;5.07;;;;;;;16.87;66.07;93280.63;5089460;28;20052;-75
2021/08/16 02:08:29;;;;;;;9.05;5.60;;;;;;;16.84;66.08;93287.06;5089569;28;20052;-75
2021/08/16 02:10:56;;;;;;;9.45;5.50;;;;;;;16.88;66.11;93287.38;5089272;28;20055;-75
2021/08/16 02:13:23;;;;;;;6.82;5.63;;;;;;;16.87;65.87;93283.22;5089291;28;20052;-75
2021/08/16 02:15:50;;;;;;;6.78;4.60;;;;;;;16.80;66.24;93283.44;5089149;28;20052;-76
2021/08/16 02:18:18;;;;;;;7.38;5.15;;;;;;;16.79;66.39;93287.03;5089209;28;20489;-75
2021/08/16 02:20:45;;;;;;;9.85;5.45;;;;;;;16.75;66.30;93280.78;5089456;28;20048;-75
2021/08/16 02:23:11;;;;;;;8.90;5.70;;;;;;;16.77;66.13;93286.50;5089147;28;20040;-75
2021/08/16 02:25:38;;;;;;;10.82;5.75;;;;;;;16.69;66.85;93285.94;5089069;28;20055;-75
2021/08/16 02:28:05;;;;;;;8.73;5.55;;;;;;;16.73;66.42;93290.59;5089026;28;20052;-75
2021/08/16 02:30:33;;;;;;;7.55;5.40;;;;;;;16.68;66.76;93278.38;5089052;28;20512;-75
2021/08/16 02:33:00;;;;;;;7.65;5.03;;;;;;;16.63;66.91;93273.94;5089292;28;20054;-75
2021/08/16 02:35:28;;;;;;;11.05;6.45;;;;;;;16.64;66.88;93283.28;5089492;28;20048;-75
2021/08/16 02:37:55;;;;;;;8.32;5.18;;;;;;;16.64;67.25;93290.28;5089341;28;20071;-77
2021/08/16 02:40:21;;;;;;;12.43;5.43;;;;;;;16.55;67.21;93288.13;5089097;28;20048;-77
2021/08/16 02:42:48;;;;;;;10.10;5.95;;;;;;;16.45;67.60;93284.63;5089184;28;20048;-77
2021/08/16 02:45:15;;;;;;;8.60;5.68;;;;;;;16.49;67.48;93285.72;5089165;28;20394;-77
2021/08/16 02:47:43;;;;;;;10.98;6.35;;;;;;;16.45;67.82;93295.00;5088790;28;20500;-76
2021/08/16 02:50:12;;;;;;;10.68;5.43;;;;;;;16.49;67.52;93291.72;5089047;28;20140;-76
2021/08/16 02:52:40;;;;;;;6.53;4.82;;;;;;;16.49;67.37;93280.53;5089425;28;20130;-76
2021/08/16 02:55:08;;;;;;;10.25;5.15;;;;;;;16.48;67.56;93290.13;5089199;28;20048;-76
2021/08/16 02:57:35;;;;;;;8.13;5.32;;;;;;;16.36;68.15;93282.50;5088755;28;20059;-76
2021/08/16 03:00:01;;;;;;;8.77;5.65;;;;;;;16.32;68.60;93296.97;5088979;28;20413;-76
2021/08/16 03:02:28;;;;;;;8.93;5.63;;;;;;;16.17;68.70;93282.81;5089360;28;20088;-76
2021/08/16 03:04:55;;;;;;;7.47;4.93;;;;;;;16.15;69.20;93287.44;5091221;28;20045;-77
2021/08/16 03:07:22;;;;;;;6.63;5.00;;;;;;;16.10;69.77;93284.81;5092527;28;20052;-77
2021/08/16 03:09:50;;;;;;;11.50;6.15;;;;;;;16.01;70.43;93276.66;5092797;28;20059;-75
2021/08/16 03:12:18;;;;;;;10.18;5.97;;;;;;;16.07;69.94;93281.91;5092493;28;20055;-75
2021/08/16 03:14:45;;;;;;;8.65;5.63;;;;;;;16.11;70.01;93285.59;5092989;28;20409;-75
2021/08/16 03:17:12;;;;;;;8.57;5.80;;;;;;;16.15;69.51;93284.88;5092386;28;20528;-75
2021/08/16 03:19:39;;;;;;;11.52;5.70;;;;;;;16.12;69.62;93277.56;5092621;28;20048;-75
2021/08/16 03:22:06;;;;;;;9.45;5.03;;;;;;;16.14;69.46;93280.72;5092431;28;20522;-75
2021/08/16 03:24:33;;;;;;;9.57;5.57;;;;;;;16.13;69.45;93279.16;5092512;28;20071;-75
2021/08/16 03:27:01;;;;;;;14.13;5.03;;;;;;;16.12;69.25;93282.75;5088990;28;20487;-74
2021/08/16 03:29:28;;;;;;;10.90;5.93;;;;;;;16.15;69.08;93279.69;5090897;28;20417;-75
2021/08/16 03:31:55;;;;;;;9.00;5.60;;;;;;;16.17;68.83;93282.81;5091867;28;20055;-75
2021/08/16 03:34:22;;;;;;;10.05;5.40;;;;;;;16.20;68.67;93286.72;5092225;28;20052;-75
2021/08/16 03:36:48;;;;;;;9.00;5.65;;;;;;;16.15;69.53;93284.88;5091860;28;20098;-75
2021/08/16 03:39:15;;;;;;;16.10;5.93;;;;;;;15.97;69.86;93285.94;5091865;28;20504;-76
2021/08/16 03:41:42;;;;;;;7.20;5.30;;;;;;;15.98;69.42;93284.16;5092032;28;20056;-75
2021/08/16 03:44:10;;;;;;;8.35;5.60;;;;;;;16.05;69.40;93297.69;5091928;28;20055;-75
2021/08/16 03:46:37;;;;;;;10.90;5.90;;;;;;;15.88;70.45;93289.97;5092054;28;20048;-75
2021/08/16 03:49:04;;;;;;;9.65;5.30;;;;;;;15.82;71.03;93303.84;5091770;28;20044;-75
2021/08/16 03:51:31;;;;;;;13.38;5.57;;;;;;;15.78;70.61;93300.97;5091778;28;20052;-75
2021/08/16 03:53:58;;;;;;;10.50;5.93;;;;;;;15.91;70.48;93310.19;5091679;28;20044;-75
2021/08/16 03:56:24;;;;;;;8.85;6.05;;;;;;;15.89;70.71;93304.47;5091791;28;20048;-75
2021/08/16 03:58:51;;;;;;;17.02;6.53;;;;;;;15.89;70.82;93307.84;5091582;28;20044;-75
2021/08/16 04:01:20;;;;;;;14.25;6.68;;;;;;;15.91;70.66;93307.59;5091673;28;20048;-75
2021/08/16 04:03:47;;;;;;;9.27;6.07;;;;;;;15.96;70.92;93314.72;5091744;28;20040;-76
2021/08/16 04:06:14;;;;;;;19.38;6.60;;;;;;;15.84;71.30;93297.41;5091787;28;20055;-76
2021/08/16 04:08:42;;;;;;;16.20;6.65;;;;;;;15.98;70.85;93307.47;5091241;28;20048;-76
2021/08/16 04:11:09;;;;;;;15.70;7.65;;;;;;;16.08;70.16;93310.19;5091359;28;20493;-76
2021/08/16 04:13:36;;;;;;;13.57;6.18;;;;;;;16.11;70.30;93308.91;5091528;28;20054;-76
2021/08/16 04:16:03;;;;;;;12.25;6.13;;;;;;;16.22;69.51;93312.41;5090679;28;20051;-76
2021/08/16 04:18:31;;;;;;;10.13;6.05;;;;;;;16.21;70.08;93309.03;5091488;28;20071;-76
2021/08/16 04:20:59;;;;;;;11.48;6.60;;;;;;;16.16;69.87;93301.97;5091225;28;20044;-76
2021/08/16 04:23:26;;;;;;;10.82;6.38;;;;;;;16.22;69.89;93312.41;5091364;28;20052;-76
2021/08/16 04:25:52;;;;;;;13.63;6.82;;;;;;;16.25;69.56;93304.91;5091481;28;20044;-76
2021/08/16 04:28:19;;;;;;;25.08;7.97;;;;;;;16.32;69.28;93303.94;5091269;28;20048;-76
2021/08/16 04:30:47;;;;;;;9.15;6.38;;;;;;;16.33;69.22;93302.94;5091250;28;20435;-75
2021/08/16 04:33:14;;;;;;;17.00;5.38;;;;;;;16.40;69.29;93308.72;5091182;28;20090;-75
2021/08/16 04:35:42;;;;;;;29.35;8.38;;;;;;;16.44;69.27;93296.84;5091067;28;20052;-75
2021/08/16 04:38:09;;;;;;;13.95;7.03;;;;;;;16.54;68.83;93296.91;5090985;28;20048;-75
2021/08/16 04:40:36;;;;;;;12.13;6.20;;;;;;;16.58;68.83;93301.63;5090986;28;20378;-75
2021/08/16 04:43:03;;;;;;;18.00;7.15;;;;;;;16.63;69.25;93304.28;5090931;28;20097;-75
2021/08/16 04:45:30;;;;;;;22.83;7.07;;;;;;;16.61;69.35;93291.53;5090691;28;20044;-76
2021/08/16 04:47:57;;;;;;;11.32;5.65;;;;;;;16.70;68.95;93305.66;5090851;28;20048;-75
2021/08/16 04:50:24;;;;;;;10.48;6.15;;;;;;;16.78;68.02;93294.03;5090737;28;20047;-76
2021/08/16 04:52:52;;;;;;;15.00;6.72;;;;;;;16.89;67.94;93307.88;5090868;28;20044;-76
2021/08/16 04:55:19;;;;;;;17.13;6.97;;;;;;;16.99;67.90;93309.00;5090529;28;20540;-75
2021/08/16 04:57:45;;;;;;;16.33;6.68;;;;;;;17.08;67.42;93310.16;5090409;28;20515;-75
2021/08/16 05:00:15;;;;;;;27.48;6.90;;;;;;;17.12;68.21;93303.41;5090636;28;20052;-75
2021/08/16 05:02:42;;;;;;;21.27;8.15;;;;;;;17.25;67.83;93317.03;5090291;28;20044;-75
2021/08/16 05:05:11;;;;;;;13.98;7.20;;;;;;;17.31;68.18;93311.59;5090594;28;20048;-75
2021/08/16 05:07:38;;;;;;;20.42;7.57;;;;;;;17.34;68.65;93311.13;5090568;28;20052;-75
2021/08/16 05:10:08;;;;;;;16.95;7.05;;;;;;;17.40;68.08;93317.13;5090671;28;20376;-76
2021/08/16 05:12:35;;;;;;;23.85;8.43;;;;;;;17.48;68.38;93321.06;5090102;28;20044;-78
2021/08/16 05:15:02;;;;;;;27.17;9.00;;;;;;;17.54;68.74;93327.09;5090009;28;20142;-77
2021/08/16 05:17:29;;;;;;;12.88;7.00;;;;;;;17.56;69.12;93327.63;5089958;28;20044;-77
2021/08/16 05:19:56;;;;;;;16.33;7.38;;;;;;;17.48;71.17;93324.47;5090384;28;20056;-78
2021/08/16 05:22:22;;;;;;;23.45;8.73;;;;;;;17.49;69.11;93328.63;5090120;28;20048;-78
2021/08/16 05:24:49;;;;;;;20.60;10.48;;;;;;;17.57;69.27;93332.56;5089992;28;20048;-80
2021/08/16 05:27:17;;;;;;;20.08;9.10;;;;;;;17.68;68.05;93330.03;5089290;28;20493;-79
2021/08/16 05:29:44;;;;;;;20.20;11.05;;;;;;;17.81;66.92;93321.03;5089660;28;20047;-79
2021/08/16 05:32:12;;;;;;;30.27;13.57;;;;;;;17.95;67.43;93327.31;5090118;28;20049;-79
2021/08/16 05:34:39;;;;;;;34.45;14.75;;;;;;;18.07;66.65;93324.56;5085829;28;20048;-79
2021/08/16 05:37:06;;;;;;;39.40;16.85;;;;;;;18.24;66.94;93326.19;5088379;28;20504;-79
2021/08/16 05:39:33;;;;;;;47.90;20.77;;;;;;;18.35;66.49;93327.78;5090325;28;20051;-79
2021/08/16 05:42:00;;;;;;;50.20;22.40;;;;;;;18.57;66.75;93329.41;5109821;28;20476;-80
2021/08/16 05:44:28;;;;;;;48.63;18.83;;;;;;;18.63;64.90;93323.16;5110338;28;20475;-80
2021/08/16 05:46:55;;;;;;;49.15;22.98;;;;;;;18.79;65.22;93321.38;5110058;28;20048;-80
2021/08/16 05:49:23;;;;;;;66.82;28.27;;;;;;;19.01;65.01;93316.97;5109948;28;20454;-80
2021/08/16 05:51:49;;;;;;;75.60;31.08;;;;;;;19.13;63.80;93317.53;5109660;28;20468;-80
2021/08/16 05:54:16;;;;;;;62.95;27.80;;;;;;;19.39;64.09;93322.72;5110248;28;20047;-80
2021/08/16 05:56:43;;;;;;;45.28;20.63;;;;;;;19.60;64.01;93322.72;5109661;28;20495;-80
2021/08/16 05:59:10;;;;;;;47.72;21.65;;;;;;;19.72;63.12;93323.19;5109680;28;20492;-82
2021/08/16 06:01:39;;;;;;;61.53;24.70;;;;;;;19.95;61.64;93328.88;5109531;28;20040;-81
2021/08/16 06:04:06;;;;;;;52.53;22.08;;;;;;;20.26;59.51;93318.38;5109866;28;20043;-81
2021/08/16 06:06:33;;;;;;;55.45;23.95;;;;;;;20.36;58.03;93317.56;5109724;28;20127;-81
2021/08/16 06:09:00;;;;;;;54.67;22.30;;;;;;;20.50;56.89;93316.97;5109272;28;20047;-81
2021/08/16 06:11:28;;;;;;;65.43;26.10;;;;;;;20.73;55.91;93320.00;5110102;28;20051;-80
2021/08/16 06:13:54;;;;;;;49.60;21.38;;;;;;;20.97;55.83;93314.91;5109465;28;20051;-80
2021/08/16 06:16:21;;;;;;;36.88;18.40;;;;;;;21.38;54.00;93313.78;5109142;28;20047;-80
2021/08/16 06:18:51;;;;;;;39.88;17.80;;;;;;;21.52;53.19;93285.19;5109467;28;20047;-80
2021/08/16 06:21:18;;;;;;;36.70;16.50;;;;;;;22.06;52.77;93313.16;5109559;28;20442;-80
2021/08/16 06:23:45;;;;;;;25.42;11.55;;;;;;;22.35;50.13;93320.16;5109373;28;20062;-80
2021/08/16 06:26:12;;;;;;;23.90;11.68;;;;;;;22.29;49.74;93315.00;5109594;28;20058;-80
2021/08/16 06:28:39;;;;;;;28.10;11.43;;;;;;;22.41;49.40;93306.72;5109223;28;20047;-81
2021/08/16 06:31:07;;;;;;;31.40;12.23;;;;;;;22.61;47.85;93319.84;5109601;28;20055;-80
2021/08/16 06:33:37;;;;;;;24.88;11.65;;;;;;;23.02;48.54;93310.63;5109162;28;20044;-80
2021/08/16 06:36:08;;;;;;;30.17;11.75;;;;;;;23.18;47.96;93309.34;5109011;28;20124;-81
2021/08/16 06:38:35;;;;;;;25.67;11.07;;;;;;;23.31;47.80;93292.13;5108930;28;20048;-81
2021/08/16 06:41:03;;;;;;;23.65;10.52;;;;;;;23.94;46.76;93302.34;5113438;28;20409;-81
2021/08/16 06:43:33;;;;;;;25.77;10.93;;;;;;;24.51;45.38;93306.47;5113521;28;20044;-81
2021/08/16 06:46:00;;;;;;;33.50;12.07;;;;;;;24.79;45.07;93295.91;5113589;28;20043;-81
2021/08/16 06:48:27;;;;;;;19.15;9.93;;;;;;;25.15;44.18;93296.97;5113330;28;20054;-82
2021/08/16 06:50:54;;;;;;;25.70;10.07;;;;;;;25.72;42.69;93308.75;5113438;28;20442;-80
2021/08/16 06:53:22;;;;;;;16.42;8.20;;;;;;;25.98;42.46;93304.69;5112998;28;20507;-82
2021/08/16 06:55:50;;;;;;;14.93;7.53;;;;;;;25.66;43.54;93288.91;5113471;28;20043;-82
2021/08/16 06:58:17;;;;;;;26.38;11.57;;;;;;;26.12;42.80;93291.41;5113364;28;20047;-81
2021/08/16 07:00:47;;;;;;;32.45;13.73;;;;;;;26.70;41.32;93301.91;5113105;28;20043;-81
2021/08/16 07:03:14;;;;;;;28.67;12.02;;;;;;;27.17;41.40;93300.53;5113385;28;20124;-81
2021/08/16 07:05:42;;;;;;;21.08;10.55;;;;;;;27.61;39.79;93303.09;5113359;28;20043;-81
2021/08/16 07:08:09;;;;;;;46.40;10.63;;;;;;;27.84;39.57;93279.09;5113722;28;20048;-81
2021/08/16 07:10:37;;;;;;;18.10;8.48;;;;;;;28.21;38.69;93299.75;5113742;28;20052;-81
2021/08/16 07:13:04;;;;;;;16.80;8.55;;;;;;;28.63;38.75;93302.47;5113222;28;20044;-81
2021/08/16 07:15:31;;;;;;;18.00;8.05;;;;;;;28.86;38.15;93285.50;5113145;28;20044;-81
2021/08/16 07:17:58;;;;;;;17.48;7.18;;;;;;;29.29;37.42;93300.25;5112672;28;20058;-82
2021/08/16 07:20:26;;;;;;;14.20;6.75;;;;;;;29.49;37.28;93297.13;5112895;28;20047;-81
2021/08/16 07:22:53;;;;;;;11.63;5.93;;;;;;;29.82;36.59;93304.25;5112758;28;20093;-82
2021/08/16 07:25:20;;;;;;;15.13;6.20;;;;;;;30.03;36.12;93296.19;5112757;28;20052;-82
2021/08/16 07:27:49;;;;;;;11.30;5.40;;;;;;;30.07;35.79;93283.06;5112880;28;20608;-82
2021/08/16 07:30:15;;;;;;;9.80;5.32;;;;;;;30.28;34.94;93288.28;5112628;28;20067;-82
2021/08/16 07:32:42;;;;;;;10.50;5.13;;;;;;;30.44;35.13;93298.22;5112655;28;20043;-82
2021/08/16 07:35:10;;;;;;;7.88;4.95;;;;;;;30.73;34.92;93299.81;5112379;28;20055;-82
2021/08/16 07:37:37;;;;;;;8.20;5.10;;;;;;;30.95;34.36;93303.06;5112327;28;20536;-82
2021/08/16 07:40:05;;;;;;;10.07;4.55;;;;;;;31.12;33.37;93282.66;5112460;28;20048;-83
2021/08/16 07:42:32;;;;;;;7.80;4.88;;;;;;;31.35;33.07;93290.91;5112493;28;20051;-83
2021/08/16 07:45:00;;;;;;;15.63;5.97;;;;;;;31.48;32.61;93296.13;5112171;28;20137;-83
2021/08/16 07:47:27;;;;;;;14.02;5.07;;;;;;;31.61;32.57;93289.66;5112206;28;20044;-83
2021/08/16 07:49:53;;;;;;;11.57;6.07;;;;;;;31.54;32.21;93254.94;5112259;28;20139;-83
2021/08/16 07:52:20;;;;;;;8.70;4.50;;;;;;;31.72;32.05;93276.63;5111083;28;20059;-83
2021/08/16 07:54:47;;;;;;;9.65;5.15;;;;;;;31.80;31.76;93277.56;5112071;28;20497;-83
2021/08/16 07:57:14;;;;;;;11.95;4.85;;;;;;;31.95;32.25;93270.72;5112287;28;20415;-82
2021/08/16 07:59:41;;;;;;;9.88;4.70;;;;;;;32.11;31.83;93265.38;5112142;28;20649;-82
2021/08/16 08:02:09;;;;;;;11.90;4.82;;;;;;;32.26;31.76;93280.53;5112046;28;20055;-82
2021/08/16 08:04:36;;;;;;;8.13;4.47;;;;;;;32.28;30.01;93272.22;5112344;28;20051;-82
2021/08/16 08:07:03;;;;;;;7.75;4.57;;;;;;;32.37;30.75;93267.50;5111927;28;20401;-81
2021/08/16 08:09:31;;;;;;;10.23;4.65;;;;;;;32.50;30.91;93276.13;5111976;28;20393;-82
2021/08/16 08:11:58;;;;;;;10.98;4.68;;;;;;;32.56;30.33;93258.03;5111759;28;20094;-81
2021/08/16 08:14:25;;;;;;;7.00;4.50;;;;;;;32.64;30.32;93272.25;5111770;28;20072;-82
2021/08/16 08:16:52;;;;;;;8.40;4.55;;;;;;;32.76;30.66;93274.00;5111584;28;20126;-82
2021/08/16 08:19:20;;;;;;;8.18;4.80;;;;;;;32.81;30.15;93276.38;5096880;28;20094;-82
2021/08/16 08:21:47;;;;;;;8.32;4.75;;;;;;;32.75;30.23;93259.16;5089746;28;20050;-81
2021/08/16 08:24:14;;;;;;;8.00;4.82;;;;;;;33.03;29.30;93268.84;5090286;28;20512;-83
2021/08/16 08:26:41;;;;;;;8.80;4.47;;;;;;;32.08;29.26;93244.84;5090966;28;20059;-82
2021/08/16 08:29:08;;;;;;;11.50;4.93;;;;;;;32.42;29.30;93249.75;5090919;28;20622;-82
2021/08/16 08:31:38;;;;;;;7.07;4.80;;;;;;;32.46;29.42;93250.59;5090920;28;20070;-82
2021/08/16 08:34:05;;;;;;;8.52;4.50;;;;;;;32.87;29.58;93263.56;5090768;28;20087;-82
2021/08/16 08:36:33;;;;;;;8.60;4.72;;;;;;;32.52;27.96;93255.31;5090664;28;20082;-83
2021/08/16 08:39:00;;;;;;;9.68;4.30;;;;;;;32.40;27.65;93210.97;5090632;28;20066;-83
2021/08/16 08:41:30;;;;;;;7.82;4.65;;;;;;;32.92;29.12;93242.00;5091139;28;20052;-82
2021/08/16 08:43:59;;;;;;;7.55;4.28;;;;;;;33.17;28.14;93249.69;5090954;28;20096;-82
2021/08/16 08:46:27;;;;;;;5.85;4.30;;;;;;;33.39;27.35;93252.75;5087833;28;20051;-83
2021/08/16 08:48:54;;;;;;;8.15;4.72;;;;;;;33.55;26.92;93237.44;5090746;28;20130;-82
2021/08/16 08:51:23;;;;;;;8.25;4.97;;;;;;;33.68;27.15;93254.03;5090827;28;20056;-82
2021/08/16 08:53:55;;;;;;;12.88;4.88;;;;;;;33.24;25.83;93214.47;5090340;28;20508;-83
2021/08/16 08:56:22;;;;;;;5.50;4.07;;;;;;;32.56;27.68;93244.75;5090336;28;20130;-82
2021/08/16 08:58:49;;;;;;;5.35;4.25;;;;;;;31.50;28.62;93246.13;5091291;28;20043;-82
2021/08/16 09:01:16;;;;;;;7.40;4.47;;;;;;;31.55;28.70;93243.22;5091283;28;20055;-82
2021/08/16 09:03:54;;;;;;;10.65;5.00;;;;;;;31.53;28.66;93235.59;5090334;28;20074;-82
2021/08/16 09:06:31;;;;;;;6.53;4.18;;;;;;;30.89;29.38;93249.50;5090263;28;20444;-82
2021/08/16 09:09:00;;;;;;;8.52;4.80;;;;;;;31.12;30.73;93245.53;5090697;28;20052;-82
2021/08/16 09:11:28;;;;;;;9.27;4.57;;;;;;;31.82;29.60;93235.50;5090154;28;20051;-82
2021/08/16 09:13:57;;;;;;;7.05;4.47;;;;;;;32.29;28.84;93225.16;5090111;28;20449;-82
2021/08/16 09:16:24;;;;;;;6.45;4.22;;;;;;;32.64;29.02;93227.78;5090093;28;20051;-82
2021/08/16 09:18:52;;;;;;;12.05;5.00;;;;;;;33.01;28.75;93229.28;5090093;28;20519;-83
2021/08/16 09:21:27;;;;;;;6.88;4.22;;;;;;;33.36;26.88;93221.53;5089924;28;20044;-83
2021/08/16 09:23:57;;;;;;;11.27;4.65;;;;;;;33.30;26.27;93226.34;5090415;28;20047;-83
2021/08/16 09:26:28;;;;;;;6.43;4.65;;;;;;;33.67;27.84;93228.50;5089941;28;20056;-83
2021/08/16 09:28:56;;;;;;;9.68;5.35;;;;;;;34.03;26.60;93224.84;5085928;28;20535;-84
2021/08/16 09:31:24;;;;;;;8.85;4.40;;;;;;;33.40;25.48;93183.16;5087864;28;20408;-84
2021/08/16 09:33:53;;;;;;;7.80;4.28;;;;;;;33.74;26.59;93216.44;5089464;28;20062;-84
2021/08/16 09:36:21;;;;;;;6.25;4.03;;;;;;;34.05;26.96;93185.31;5089658;28;20048;-83
2021/08/16 09:38:48;;;;;;;8.57;4.50;;;;;;;34.45;26.85;93213.25;5089818;28;20079;-83
2021/08/16 09:41:26;;;;;;;7.72;4.53;;;;;;;34.76;26.37;93213.25;5099585;28;20055;-84
2021/08/16 09:44:06;;;;;;;8.73;5.53;;;;;;;34.80;26.19;93178.59;5089819;28;20064;-83
2021/08/16 09:46:33;;;;;;;11.23;4.57;;;;;;;34.73;24.95;93200.63;5089659;28;20048;-83
2021/08/16 09:49:02;;;;;;;6.43;4.78;;;;;;;34.56;25.26;93202.69;5089338;28;20048;-83
2021/08/16 09:51:30;;;;;;;7.88;4.65;;;;;;;35.18;25.69;93206.06;5089743;28;20070;-83
2021/08/16 09:53:59;;;;;;;8.52;4.80;;;;;;;35.36;24.56;93186.78;5089728;28;20401;-83
2021/08/16 09:56:27;;;;;;;9.35;5.13;;;;;;;35.65;25.05;93181.69;5089770;28;20051;-83
2021/08/16 09:58:54;;;;;;;7.60;4.80;;;;;;;35.85;24.91;93190.22;5089121;28;20079;-84
2021/08/16 10:01:22;;;;;;;6.55;4.45;;;;;;;35.17;24.14;93183.94;5088914;28;20051;-84
2021/08/16 10:03:49;;;;;;;12.35;4.78;;;;;;;35.09;25.02;93182.31;5087550;28;20091;-83
2021/08/16 10:06:20;;;;;;;7.95;4.22;;;;;;;35.69;24.89;93190.50;5084614;28;20048;-84
2021/08/16 10:08:53;;;;;;;7.57;4.68;;;;;;;35.89;24.61;93190.22;5085452;28;20497;-82
2021/08/16 10:11:23;;;;;;;9.63;5.32;;;;;;;35.79;24.23;93176.44;5087191;28;20048;-84
2021/08/16 10:13:53;;;;;;;7.50;4.28;;;;;;;36.08;23.03;93173.16;5087027;28;20075;-83
2021/08/16 10:16:25;;;;;;;8.30;4.38;;;;;;;35.91;22.76;93143.28;5087711;28;20044;-83
2021/08/16 10:19:02;;;;;;;12.27;4.47;;;;;;;36.17;23.06;93172.84;5085521;28;21430;-84
2021/08/16 10:21:30;;;;;;;11.77;4.07;;;;;;;36.31;23.09;93156.88;5088832;28;20155;-83
2021/08/16 10:23:57;;;;;;;7.90;4.82;;;;;;;36.38;21.22;93159.56;5087982;28;20059;-84
2021/08/16 10:26:29;;;;;;;14.63;4.18;;;;;;;36.33;20.69;93148.47;5088140;28;20048;-84
2021/08/16 10:29:01;;;;;;;7.20;4.25;;;;;;;36.68;22.10;93160.47;5088082;28;20054;-83
2021/08/16 10:31:31;;;;;;;6.97;4.20;;;;;;;36.87;22.11;93161.25;5087074;28;20044;-83
2021/08/16 10:33:58;;;;;;;10.80;4.80;;;;;;;36.98;22.48;93159.38;5086769;28;20052;-84
2021/08/16 10:36:26;;;;;;;14.35;6.28;;;;;;;37.23;21.84;93152.53;5087178;28;20052;-84
2021/08/16 10:38:56;;;;;;;9.32;4.65;;;;;;;37.10;21.06;93150.25;5085858;28;20052;-84
2021/08/16 10:41:28;;;;;;;8.55;4.13;;;;;;;36.75;22.09;93154.38;5087540;28;20052;-83
2021/08/16 10:43:57;;;;;;;9.18;5.35;;;;;;;36.99;21.19;93150.22;5086365;28;20085;-84
2021/08/16 10:46:25;;;;;;;10.40;4.78;;;;;;;37.14;21.69;93147.56;5087177;28;20051;-83
2021/08/16 10:49:03;;;;;;;7.47;4.45;;;;;;;37.25;21.30;93110.09;5087533;28;20044;-83
2021/08/16 10:51:41;;;;;;;8.23;4.47;;;;;;;37.50;21.12;93134.19;5088002;28;20044;-83
2021/08/16 10:54:09;;;;;;;7.15;3.92;;;;;;;37.58;20.64;93132.25;5087498;28;20048;-85
2021/08/16 10:56:36;;;;;;;12.35;4.47;;;;;;;37.80;21.14;93132.25;5089076;28;20134;-85
2021/08/16 10:59:04;;;;;;;10.18;5.10;;;;;;;37.85;21.02;93126.47;5088814;28;20051;-84
2021/08/16 11:01:33;;;;;;;12.02;5.07;;;;;;;38.14;20.92;93131.03;5089051;28;20058;-85
2021/08/16 11:04:02;;;;;;;17.05;5.90;;;;;;;38.17;20.69;93106.13;5088422;28;20113;-86
2021/08/16 11:06:30;;;;;;;10.75;4.45;;;;;;;37.96;20.31;93078.22;5088815;28;20500;-83
2021/08/16 11:08:58;;;;;;;7.20;4.30;;;;;;;38.30;20.39;93115.25;5088467;28;20051;-84
2021/08/16 11:11:26;;;;;;;9.40;4.30;;;;;;;38.46;19.86;93114.03;5088967;28;20052;-86
2021/08/16 11:14:06;;;;;;;27.35;5.63;;;;;;;38.30;20.34;93060.81;5088412;28;20428;-86
2021/08/16 11:16:33;;;;;;;12.80;5.10;;;;;;;38.46;19.84;93087.94;5088657;28;20059;-84
2021/08/16 11:19:00;;;;;;;8.75;5.03;;;;;;;38.33;20.20;93094.94;5088357;28;20067;-84
2021/08/16 11:21:30;;;;;;;8.15;4.25;;;;;;;38.50;19.11;93096.00;5088992;28;20052;-86
2021/08/16 11:23:59;;;;;;;10.07;4.95;;;;;;;37.65;20.25;93089.41;5088558;28;20060;-86
2021/08/16 11:26:26;;;;;;;14.55;4.35;;;;;;;37.50;20.78;93093.22;5091822;28;20185;-84
2021/08/16 11:29:07;;;;;;;26.85;5.20;;;;;;;37.26;20.56;93056.13;5092408;28;20071;-85
2021/08/16 11:31:34;;;;;;;6.95;4.20;;;;;;;37.89;20.70;93088.97;5092430;28;20484;-86